Time;durP1;ratioP1;P1;durP2;ratioP2;P2;SDS_P1;SDS_P2;PMS_P1;PMS_P2;Temp;Humidity;BMP_temperature;BMP_pressure;BME280_temperature;BME280_humidity;BME280_pressure;Samples;Min_cycle;Max_cycle;Signal;HPM_P1;HPM_P2
2021/07/18 00:01:55;;;;;;;5.83;3.50;;;;;;;22.72;95.15;93888.53;10617339;27;20035;-77
2021/07/18 00:06:55;;;;;;;6.33;3.30;;;;;;;22.65;95.36;93883.78;10618264;27;20450;-76
2021/07/18 00:11:56;;;;;;;10.18;3.85;;;;;;;22.74;94.79;93888.97;10615854;27;20066;-76
2021/07/18 00:16:56;;;;;;;9.23;3.70;;;;;;;22.66;95.63;93882.59;10617057;27;20156;-77
2021/07/18 00:21:56;;;;;;;4.67;3.43;;;;;;;22.62;96.09;93879.03;10597612;27;20027;-76
2021/07/18 00:26:57;;;;;;;8.13;3.80;;;;;;;22.62;95.42;93877.09;10616152;27;20035;-77
2021/07/18 00:31:57;;;;;;;4.40;3.23;;;;;;;22.61;95.73;93883.72;10616627;27;20277;-76
2021/07/18 00:36:58;;;;;;;5.57;3.63;;;;;;;22.59;97.30;93875.09;10616678;27;20031;-77
2021/07/18 00:41:58;;;;;;;6.07;3.50;;;;;;;22.41;99.54;93874.03;10616430;27;20280;-76
2021/07/18 00:46:58;;;;;;;7.77;3.37;;;;;;;22.24;100.00;93875.34;10616086;27;20084;-76
2021/07/18 00:51:59;;;;;;;12.23;4.20;;;;;;;21.96;100.00;93877.28;10613661;27;20489;-76
2021/07/18 00:57:01;;;;;;;15.32;3.40;;;;;;;21.80;100.00;93890.31;10612140;27;20797;-76
2021/07/18 01:02:02;;;;;;;9.32;3.78;;;;;;;21.71;100.00;93878.81;10612141;27;20059;-76
2021/07/18 01:07:02;;;;;;;6.68;3.55;;;;;;;21.71;100.00;93873.34;10611835;27;20397;-76
2021/07/18 01:12:03;;;;;;;10.73;3.90;;;;;;;21.46;100.00;93869.00;10611239;27;20091;-77
2021/07/18 01:17:04;;;;;;;6.05;3.70;;;;;;;21.43;100.00;93864.25;10611389;27;20490;-76
2021/07/18 01:22:04;;;;;;;10.30;4.10;;;;;;;21.42;100.00;93868.16;10593065;27;20019;-77
2021/07/18 01:27:05;;;;;;;5.05;3.55;;;;;;;21.12;100.00;93870.72;10610613;27;20284;-76
2021/07/18 01:32:06;;;;;;;8.55;4.05;;;;;;;21.06;100.00;93872.19;10610797;27;20038;-77
2021/07/18 01:37:07;;;;;;;4.95;3.75;;;;;;;20.98;100.00;93884.91;10609932;27;20034;-77
2021/07/18 01:42:07;;;;;;;5.93;3.65;;;;;;;20.71;100.00;93875.75;10608919;27;20034;-76
2021/07/18 01:47:08;;;;;;;14.40;4.30;;;;;;;20.69;100.00;93884.31;10609289;27;20023;-76
2021/07/18 01:52:09;;;;;;;6.45;3.45;;;;;;;20.43;100.00;93876.75;10609777;27;20042;-76
2021/07/18 01:57:11;;;;;;;8.45;4.05;;;;;;;20.41;100.00;93874.34;10591253;27;20027;-76
2021/07/18 02:02:13;;;;;;;11.80;3.92;;;;;;;20.31;100.00;93880.38;10609867;27;20039;-77
2021/07/18 02:07:16;;;;;;;6.32;3.55;;;;;;;20.32;100.00;93877.28;10609697;27;20486;-77
2021/07/18 02:12:16;;;;;;;5.68;4.07;;;;;;;20.17;100.00;93874.59;10609301;27;20023;-77
2021/07/18 02:17:17;;;;;;;9.93;4.13;;;;;;;20.09;100.00;93879.91;10608818;27;20039;-77
2021/07/18 02:22:31;;;;;;;6.00;4.05;;;;;;;20.22;100.00;93877.03;10608888;27;20043;-77
2021/07/18 02:27:32;;;;;;;9.48;4.50;;;;;;;20.15;100.00;93873.00;10609026;28;20047;-77
2021/07/18 02:32:32;;;;;;;10.65;4.57;;;;;;;20.05;100.00;93875.50;10609320;28;20031;-77
2021/07/18 02:37:33;;;;;;;9.33;4.07;;;;;;;19.97;100.00;93875.31;10608695;28;20798;-77
2021/07/18 02:42:34;;;;;;;11.13;4.03;;;;;;;19.86;100.00;93881.69;10608992;27;20042;-77
2021/07/18 02:47:35;;;;;;;7.13;4.10;;;;;;;19.80;100.00;93886.59;10610133;27;20033;-77
2021/07/18 02:52:36;;;;;;;7.90;4.28;;;;;;;19.73;100.00;93891.84;10617520;27;20043;-77
2021/07/18 02:57:36;;;;;;;8.65;3.95;;;;;;;19.73;100.00;93887.19;10617400;27;20039;-77
2021/07/18 03:02:37;;;;;;;10.57;3.87;;;;;;;19.74;100.00;93891.50;10617037;27;20031;-77
2021/07/18 03:07:38;;;;;;;8.25;4.63;;;;;;;19.83;100.00;93898.72;10616831;27;20024;-77
2021/07/18 03:12:39;;;;;;;7.13;4.63;;;;;;;19.93;100.00;93900.94;10616762;27;20401;-77
2021/07/18 03:17:40;;;;;;;6.18;4.63;;;;;;;19.84;100.00;93901.09;10616285;27;20095;-77
2021/07/18 03:22:42;;;;;;;10.23;4.05;;;;;;;19.86;100.00;93901.56;10616071;27;20431;-77
2021/07/18 03:27:43;;;;;;;8.50;3.90;;;;;;;19.77;100.00;93911.81;10631529;27;20055;-77
2021/07/18 03:32:44;;;;;;;8.82;3.90;;;;;;;19.76;100.00;93910.25;10615570;27;20110;-77
2021/07/18 03:37:44;;;;;;;10.25;3.88;;;;;;;19.91;100.00;93914.94;10615343;27;20031;-77
2021/07/18 03:42:45;;;;;;;10.40;5.03;;;;;;;20.02;100.00;93908.94;10615448;27;20111;-77
2021/07/18 03:47:46;;;;;;;5.82;4.03;;;;;;;20.07;100.00;93916.84;10615574;27;20478;-77
2021/07/18 03:52:47;;;;;;;7.43;3.83;;;;;;;20.12;100.00;93913.84;10615017;27;20027;-77
2021/07/18 03:57:48;;;;;;;5.00;3.97;;;;;;;20.09;100.00;93909.09;10614206;27;20035;-77
2021/07/18 04:02:48;;;;;;;6.97;3.67;;;;;;;20.10;100.00;93910.69;10614990;27;20042;-77
2021/07/18 04:07:48;;;;;;;9.57;4.23;;;;;;;20.07;100.00;93923.09;10595957;27;20015;-77
2021/07/18 04:12:49;;;;;;;12.93;4.10;;;;;;;20.05;100.00;93924.59;10613925;27;20256;-77
2021/07/18 04:17:49;;;;;;;6.88;3.72;;;;;;;20.14;100.00;93927.94;10614272;27;20090;-77
2021/07/18 04:22:50;;;;;;;11.15;5.32;;;;;;;20.09;100.00;93925.47;10613109;27;20027;-77
2021/07/18 04:27:50;;;;;;;7.53;4.20;;;;;;;20.27;100.00;93940.31;10613539;27;20023;-77
2021/07/18 04:32:50;;;;;;;13.00;6.47;;;;;;;20.38;100.00;93942.50;10613607;27;20027;-77
2021/07/18 04:37:51;;;;;;;10.07;4.30;;;;;;;20.72;100.00;93942.88;10613156;27;20401;-78
2021/07/18 04:42:51;;;;;;;10.70;3.77;;;;;;;21.19;100.00;93941.91;10612820;27;20022;-77
2021/07/18 04:47:57;;;;;;;6.73;3.90;;;;;;;21.67;100.00;93938.91;10612933;27;20337;-77
2021/07/18 04:52:58;;;;;;;8.15;4.10;;;;;;;22.30;100.00;93942.31;10612547;27;20275;-78
2021/07/18 04:57:58;;;;;;;7.17;3.93;;;;;;;22.81;100.00;93938.38;10612707;27;20394;-77
2021/07/18 05:02:58;;;;;;;7.90;3.93;;;;;;;23.07;100.00;93939.50;10612427;27;20805;-76
2021/07/18 05:07:59;;;;;;;6.97;3.23;;;;;;;23.21;100.00;93948.69;10612046;27;20090;-76
2021/07/18 05:12:59;;;;;;;6.03;3.58;;;;;;;23.48;100.00;93934.88;10611111;27;20065;-76
2021/07/18 05:18:09;;;;;;;10.53;3.23;;;;;;;23.67;100.00;93946.84;10611532;27;20106;-77
2021/07/18 05:23:11;;;;;;;9.85;4.13;;;;;;;24.25;100.00;93952.88;10609498;27;20099;-77
2021/07/18 05:28:11;;;;;;;9.23;3.85;;;;;;;24.37;100.00;93958.09;10610129;27;20787;-76
2021/07/18 05:33:11;;;;;;;10.77;4.23;;;;;;;24.61;100.00;93967.69;10610616;27;20030;-77
2021/07/18 05:38:12;;;;;;;8.27;4.67;;;;;;;25.31;98.91;93953.94;10610944;27;20031;-76
2021/07/18 05:43:12;;;;;;;12.90;4.60;;;;;;;25.73;96.14;93952.56;10610979;27;20027;-77
2021/07/18 05:48:19;;;;;;;12.07;4.40;;;;;;;26.13;92.98;93947.13;10610275;27;20037;-77
2021/07/18 05:53:20;;;;;;;8.40;5.50;;;;;;;25.91;95.14;93946.28;10618790;27;20031;-77
2021/07/18 05:58:20;;;;;;;7.90;4.97;;;;;;;26.19;90.49;93942.00;10610182;27;20015;-77
2021/07/18 06:03:20;;;;;;;12.23;4.77;;;;;;;26.85;84.57;93946.31;10609649;27;20818;-77
2021/07/18 06:08:21;;;;;;;6.30;4.53;;;;;;;28.04;79.33;93932.81;10609326;27;20114;-77
2021/07/18 06:13:21;;;;;;;8.90;4.40;;;;;;;28.69;67.85;93939.81;10608517;27;20155;-77
2021/07/18 06:18:21;;;;;;;9.83;4.70;;;;;;;28.99;66.06;93931.59;10608896;27;20034;-77
2021/07/18 06:23:22;;;;;;;11.17;4.20;;;;;;;30.17;59.18;93919.47;10607259;27;20482;-77
2021/07/18 06:28:22;;;;;;;6.23;4.10;;;;;;;30.20;56.56;93917.81;10609499;27;20027;-77
2021/07/18 06:33:22;;;;;;;7.00;4.30;;;;;;;29.91;56.58;93926.59;10608121;28;20044;-77
2021/07/18 06:38:23;;;;;;;11.93;3.90;;;;;;;30.44;51.29;93913.91;10609295;28;20110;-77
2021/07/18 06:43:24;;;;;;;8.90;4.50;;;;;;;29.67;54.80;93918.19;10608930;27;20279;-77
2021/07/18 06:48:24;;;;;;;12.73;4.00;;;;;;;30.78;50.15;93906.56;10609063;28;20147;-77
2021/07/18 06:53:25;;;;;;;7.77;4.47;;;;;;;31.09;48.01;93901.66;10608340;28;20035;-77
2021/07/18 06:58:25;;;;;;;11.13;4.18;;;;;;;31.43;46.98;93908.16;10608037;28;20084;-77
2021/07/18 07:03:25;;;;;;;24.33;4.10;;;;;;;31.27;45.56;93894.97;10608484;27;20083;-77
2021/07/18 07:08:26;;;;;;;9.13;4.53;;;;;;;31.46;44.86;93887.84;10608441;28;20027;-77
2021/07/18 07:13:26;;;;;;;11.07;4.70;;;;;;;32.42;41.06;93900.78;10607969;27;20034;-77
2021/07/18 07:18:27;;;;;;;6.37;3.03;;;;;;;33.34;38.27;93884.88;10608423;28;20031;-76
2021/07/18 07:23:27;;;;;;;11.90;3.70;;;;;;;34.04;36.30;93882.41;10607164;28;20291;-77
2021/07/18 07:28:27;;;;;;;6.97;2.87;;;;;;;33.92;36.91;93893.56;10607699;28;20031;-76
2021/07/18 07:33:29;;;;;;;8.07;3.25;;;;;;;34.58;36.30;93877.91;10608701;27;20015;-77
2021/07/18 07:38:29;;;;;;;6.85;3.08;;;;;;;35.20;34.94;93882.16;10615585;27;20390;-76
2021/07/18 07:43:30;;;;;;;7.13;3.05;;;;;;;36.26;34.48;93865.81;10615182;27;20026;-76
2021/07/18 07:48:30;;;;;;;3.90;2.83;;;;;;;36.03;33.58;93865.13;10615401;27;20038;-77
2021/07/18 07:53:31;;;;;;;8.73;2.85;;;;;;;36.04;33.34;93857.50;10614948;27;20035;-77
2021/07/18 07:58:32;;;;;;;8.63;3.10;;;;;;;36.37;33.67;93860.59;10614881;27;20071;-77
2021/07/18 08:03:32;;;;;;;7.27;3.80;;;;;;;36.75;33.40;93859.38;10614526;27;20395;-77
2021/07/18 08:08:32;;;;;;;6.67;3.03;;;;;;;37.28;31.59;93849.94;10614157;27;20806;-77
2021/07/18 08:13:33;;;;;;;11.43;3.35;;;;;;;37.19;33.04;93849.94;10615332;27;20038;-77
2021/07/18 08:18:34;;;;;;;7.93;3.20;;;;;;;37.05;32.91;93845.72;10615636;27;20482;-77
2021/07/18 08:23:35;;;;;;;10.10;3.15;;;;;;;36.55;33.10;93851.44;10615060;27;20130;-77
2021/07/18 08:28:38;;;;;;;10.18;3.40;;;;;;;36.93;33.04;93839.03;10615384;27;20051;-77
2021/07/18 08:33:39;;;;;;;8.52;2.15;;;;;;;36.12;30.93;93838.44;10614728;27;20092;-77
2021/07/18 08:38:39;;;;;;;7.55;2.42;;;;;;;35.80;31.52;93829.28;10613790;27;20038;-77
2021/07/18 08:43:40;;;;;;;12.43;2.57;;;;;;;34.50;33.34;93833.97;10612618;27;20042;-77
2021/07/18 08:48:40;;;;;;;3.50;2.53;;;;;;;35.08;32.33;93827.13;10612638;27;20035;-76
2021/07/18 08:53:42;;;;;;;6.23;2.20;;;;;;;35.62;31.96;93821.59;10613089;27;20031;-76
2021/07/18 08:58:42;;;;;;;4.78;3.00;;;;;;;35.93;31.58;93827.97;10612677;27;20347;-77
2021/07/18 09:03:43;;;;;;;11.03;2.30;;;;;;;36.54;31.00;93830.28;10592371;27;20023;-77
2021/07/18 09:08:46;;;;;;;7.00;3.00;;;;;;;37.23;29.83;93833.72;10627097;27;20027;-77
2021/07/18 09:14:03;;;;;;;5.50;2.00;;;;;;;36.47;29.95;93830.59;10610900;27;20019;-77
2021/07/18 09:19:25;;;;;;;6.03;2.08;;;;;;;36.55;29.83;93808.69;10627506;27;20031;-77
2021/07/18 09:24:27;;;;;;;6.82;2.17;;;;;;;37.72;29.59;93811.50;10611399;27;20047;-77
2021/07/18 09:29:28;;;;;;;6.32;2.17;;;;;;;36.69;30.37;93824.09;10612123;27;20111;-77
2021/07/18 09:34:38;;;;;;;4.78;2.30;;;;;;;37.25;29.82;93808.81;10612270;27;20087;-77
2021/07/18 09:39:40;;;;;;;6.32;2.10;;;;;;;39.30;27.57;93806.44;10611811;27;20036;-78
2021/07/18 09:44:43;;;;;;;7.70;2.20;;;;;;;39.10;27.06;93801.47;10612231;27;20030;-77
2021/07/18 09:49:43;;;;;;;6.60;1.83;;;;;;;39.90;26.41;93792.38;10611409;27;20034;-77
2021/07/18 09:54:45;;;;;;;6.83;2.07;;;;;;;39.49;25.07;93809.06;10611798;27;20410;-77
2021/07/18 09:59:49;;;;;;;9.77;3.10;;;;;;;37.99;26.53;93795.84;10611221;27;20023;-77
2021/07/18 10:04:50;;;;;;;4.97;1.95;;;;;;;39.41;26.01;93782.59;10609453;27;20023;-77
2021/07/18 10:09:51;;;;;;;4.93;1.45;;;;;;;38.08;25.69;93816.22;10608973;27;20023;-77
2021/07/18 10:14:53;;;;;;;4.95;1.80;;;;;;;36.96;27.48;93780.53;10609227;27;20417;-77
2021/07/18 10:19:54;;;;;;;6.97;2.13;;;;;;;36.65;28.07;93770.28;10609438;27;20031;-77
2021/07/18 10:24:55;;;;;;;5.90;1.77;;;;;;;37.38;27.61;93777.06;10609419;27;20482;-77
2021/07/18 10:29:59;;;;;;;5.72;2.03;;;;;;;39.14;25.99;93776.00;10608938;27;20027;-77
2021/07/18 10:35:00;;;;;;;6.85;2.22;;;;;;;38.79;26.50;93776.63;10609277;28;20430;-77
2021/07/18 10:40:09;;;;;;;11.10;2.28;;;;;;;40.03;24.62;93780.00;10609437;28;20034;-77
2021/07/18 10:45:28;;;;;;;15.55;2.33;;;;;;;41.46;23.06;93753.03;10608884;28;20027;-77
2021/07/18 10:50:44;;;;;;;6.30;1.92;;;;;;;41.77;23.18;93759.91;10608917;27;20114;-77
2021/07/18 10:55:44;;;;;;;;;;;;;;;41.60;22.47;93757.78;10609179;28;20023;-77
2021/07/18 11:00:49;;;;;;;12.15;1.73;;;;;;;42.58;21.64;93772.00;10608818;28;19908;-77
2021/07/18 11:05:49;;;;;;;3.60;1.58;;;;;;;41.19;22.76;93757.13;10608414;28;20019;-77
2021/07/18 11:10:52;;;;;;;4.17;1.63;;;;;;;38.92;24.72;93757.47;10613827;27;20031;-77
2021/07/18 11:15:53;;;;;;;7.75;2.40;;;;;;;36.27;27.13;93758.25;10616714;27;20502;-77
2021/07/18 11:20:55;;;;;;;9.10;2.37;;;;;;;35.11;29.09;93756.44;10616472;27;20037;-77
2021/07/18 11:26:02;;;;;;;12.55;2.75;;;;;;;34.49;30.42;93757.06;10615715;27;20055;-76
2021/07/18 11:31:11;;;;;;;16.50;2.90;;;;;;;33.97;30.60;93739.69;10615902;27;20034;-76
2021/07/18 11:36:15;;;;;;;6.78;2.83;;;;;;;33.20;31.95;93751.59;10615102;27;20031;-77
2021/07/18 11:41:28;;;;;;;10.35;3.35;;;;;;;33.09;30.51;93756.69;10624894;27;20087;-76
2021/07/18 11:46:34;;;;;;;9.55;3.13;;;;;;;31.93;32.15;93754.22;10615412;27;20084;-76
2021/07/18 11:51:37;;;;;;;4.87;2.93;;;;;;;31.38;33.00;93769.81;10596340;27;20019;-76
2021/07/18 11:56:43;;;;;;;5.82;2.60;;;;;;;31.09;33.02;93749.03;10614580;27;20114;-76
2021/07/18 12:01:45;;;;;;;5.28;2.42;;;;;;;30.84;33.57;93746.75;10614459;27;20569;-76
2021/07/18 12:06:46;;;;;;;8.82;2.85;;;;;;;30.56;33.82;93742.56;10613975;27;20034;-76
2021/07/18 12:11:48;;;;;;;3.92;2.90;;;;;;;30.33;34.53;93749.72;10612849;27;20379;-76
2021/07/18 12:16:54;;;;;;;9.43;2.90;;;;;;;30.44;35.48;93750.31;10628163;27;20062;-76
2021/07/18 12:21:56;;;;;;;6.32;3.13;;;;;;;30.78;35.83;93743.69;10613347;27;20130;-76
2021/07/18 12:27:02;;;;;;;4.35;2.72;;;;;;;30.92;34.62;93720.41;10612583;27;20724;-77
2021/07/18 12:32:04;;;;;;;12.95;2.95;;;;;;;30.45;38.03;93717.81;10613245;27;20863;-77
2021/07/18 12:37:06;;;;;;;4.53;2.38;;;;;;;30.68;36.90;93695.56;10612653;27;20027;-76
2021/07/18 12:42:13;;;;;;;17.50;3.50;;;;;;;31.11;36.89;93693.09;10611333;27;20052;-76
2021/07/18 12:47:21;;;;;;;13.23;3.72;;;;;;;31.69;38.23;93690.53;10611124;27;20031;-77
2021/07/18 12:52:22;;;;;;;7.03;3.65;;;;;;;31.67;40.02;93706.06;10612331;27;20041;-77
2021/07/18 12:57:31;;;;;;;9.33;3.70;;;;;;;31.05;41.36;93706.69;10611431;27;20031;-76
2021/07/18 13:02:31;;;;;;;7.88;3.67;;;;;;;30.88;43.37;93716.94;10612388;27;20034;-77
2021/07/18 13:07:32;;;;;;;6.50;3.70;;;;;;;30.48;45.70;93719.75;10612005;27;20015;-77
2021/07/18 13:12:33;;;;;;;7.50;3.15;;;;;;;30.23;45.48;93696.06;10611866;27;20030;-77
2021/07/18 13:17:48;;;;;;;10.50;3.63;;;;;;;30.08;42.51;93687.22;10612205;27;20028;-77
2021/07/18 13:22:49;;;;;;;10.05;3.72;;;;;;;29.96;46.85;93690.59;10610801;27;20029;-76
2021/07/18 13:27:56;;;;;;;10.70;4.28;;;;;;;29.71;49.34;93689.06;10610670;27;20022;-77
2021/07/18 13:33:12;;;;;;;11.82;3.40;;;;;;;29.71;49.36;93680.75;10609999;27;20404;-77
2021/07/18 13:38:28;;;;;;;9.30;3.93;;;;;;;29.76;50.39;93662.84;10610937;27;20075;-77
2021/07/18 13:43:29;;;;;;;8.00;3.50;;;;;;;29.88;48.51;93661.50;10610634;27;20098;-77
2021/07/18 13:48:36;;;;;;;5.45;3.20;;;;;;;29.95;45.87;93661.38;10609875;27;20031;-77
2021/07/18 13:53:37;;;;;;;8.52;2.92;;;;;;;30.06;46.63;93648.09;10610113;27;20035;-77
2021/07/18 13:58:37;;;;;;;10.17;3.53;;;;;;;30.13;46.23;93650.72;10609400;27;20030;-77
2021/07/18 14:03:37;;;;;;;7.60;3.33;;;;;;;30.40;45.72;93654.53;10609277;27;20090;-77
2021/07/18 14:08:38;;;;;;;8.97;4.07;;;;;;;30.88;45.93;93644.78;10610173;27;20068;-77
2021/07/18 14:13:38;;;;;;;5.90;3.50;;;;;;;30.64;45.87;93633.06;10609408;27;20027;-77
2021/07/18 14:18:38;;;;;;;11.33;3.30;;;;;;;30.78;46.07;93631.97;10609064;27;20023;-77
2021/07/18 14:23:39;;;;;;;5.40;3.73;;;;;;;30.66;47.17;93653.59;10609285;27;20077;-77
2021/07/18 14:28:40;;;;;;;9.15;3.22;;;;;;;30.13;49.00;93636.09;10609064;27;20080;-77
2021/07/18 14:33:40;;;;;;;10.47;3.67;;;;;;;29.67;55.71;93625.44;10608841;27;20031;-77
2021/07/18 14:38:41;;;;;;;9.90;4.10;;;;;;;29.54;66.27;93632.81;10624974;27;20055;-77
2021/07/18 14:43:42;;;;;;;12.75;4.63;;;;;;;29.07;65.38;93628.00;10612619;27;20035;-77
2021/07/18 14:48:42;;;;;;;14.73;4.55;;;;;;;28.80;60.21;93625.25;10617367;27;20030;-77
2021/07/18 14:53:42;;;;;;;6.17;3.70;;;;;;;28.65;62.22;93635.75;10617038;27;20043;-77
2021/07/18 14:58:43;;;;;;;10.37;4.17;;;;;;;28.33;64.97;93636.94;10617539;27;20035;-77
2021/07/18 15:03:43;;;;;;;9.30;4.00;;;;;;;28.25;71.51;93649.28;10616540;27;20296;-77
2021/07/18 15:08:44;;;;;;;5.53;4.25;;;;;;;27.33;86.20;93650.56;10616632;27;20412;-77
2021/07/18 15:13:44;;;;;;;9.27;5.17;;;;;;;26.58;98.67;93632.56;10617218;27;20055;-77
2021/07/18 15:18:44;;;;;;;11.17;5.83;;;;;;;26.10;100.00;93643.03;10616134;27;20015;-77
2021/07/18 15:23:45;;;;;;;10.48;5.50;;;;;;;25.93;100.00;93641.09;10615955;27;20058;-77
2021/07/18 15:28:46;;;;;;;9.53;5.30;;;;;;;26.03;100.00;93623.78;10615954;27;20109;-77
2021/07/18 15:33:46;;;;;;;10.95;5.63;;;;;;;26.29;100.00;93624.47;10615397;27;20042;-77
2021/07/18 15:38:46;;;;;;;11.47;5.70;;;;;;;26.66;100.00;93608.50;10615088;27;20024;-77
2021/07/18 15:43:47;;;;;;;9.73;5.30;;;;;;;27.15;93.27;93594.75;10615648;27;20023;-77
2021/07/18 15:48:47;;;;;;;7.63;5.97;;;;;;;27.45;87.28;93597.66;10614871;27;20078;-77
2021/07/18 15:53:48;;;;;;;10.40;5.30;;;;;;;27.68;81.31;93601.75;10613940;27;20092;-77
2021/07/18 15:58:48;;;;;;;13.27;6.17;;;;;;;27.79;80.33;93610.69;10614477;27;20425;-77
2021/07/18 16:03:48;;;;;;;26.27;6.80;;;;;;;27.84;80.96;93622.47;10614493;27;20033;-77
2021/07/18 16:08:49;;;;;;;10.93;5.53;;;;;;;27.96;84.79;93630.22;10595489;27;20053;-77
2021/07/18 16:13:50;;;;;;;8.02;5.32;;;;;;;27.90;89.56;93626.38;10613831;27;20053;-77
2021/07/18 16:18:50;;;;;;;8.63;5.57;;;;;;;27.87;91.02;93644.53;10612551;27;20106;-77
2021/07/18 16:23:51;;;;;;;11.10;6.97;;;;;;;27.55;93.64;93653.94;10611528;27;20039;-77
2021/07/18 16:28:51;;;;;;;10.83;6.43;;;;;;;27.55;94.15;93667.72;10612943;27;20027;-77
2021/07/18 16:33:52;;;;;;;9.83;5.37;;;;;;;27.63;94.62;93687.78;10612971;27;20023;-77
2021/07/18 16:38:52;;;;;;;9.98;5.43;;;;;;;27.68;93.85;93692.84;10612470;27;20334;-77
2021/07/18 16:43:53;;;;;;;11.53;5.50;;;;;;;27.69;92.78;93697.19;10612488;27;20034;-77
2021/07/18 16:48:53;;;;;;;9.82;5.40;;;;;;;27.68;90.27;93687.31;10612391;27;20281;-76
2021/07/18 16:53:53;;;;;;;8.07;5.40;;;;;;;27.58;93.05;93689.00;10612063;27;20027;-77
2021/07/18 16:58:55;;;;;;;11.43;5.80;;;;;;;27.58;93.33;93718.56;10611980;27;20265;-77
2021/07/18 17:03:56;;;;;;;8.75;5.13;;;;;;;27.53;95.50;93741.88;10611622;27;20526;-77
2021/07/18 17:08:56;;;;;;;11.35;5.82;;;;;;;27.16;100.00;93753.56;10610343;27;20027;-77
2021/07/18 17:13:57;;;;;;;10.70;6.07;;;;;;;25.69;100.00;93772.06;10611021;27;20047;-77
2021/07/18 17:18:57;;;;;;;11.43;7.83;;;;;;;25.10;100.00;93786.16;10610783;27;20019;-78
2021/07/18 17:23:57;;;;;;;9.10;6.33;;;;;;;25.32;100.00;93779.53;10611387;27;20285;-77
2021/07/18 17:28:58;;;;;;;10.50;7.37;;;;;;;24.78;100.00;93770.34;10620003;27;20022;-77
2021/07/18 17:33:58;;;;;;;15.87;6.57;;;;;;;25.03;100.00;93779.47;10610685;27;20314;-77
2021/07/18 17:38:59;;;;;;;11.43;7.10;;;;;;;25.22;100.00;93781.06;10599438;27;20114;-77
2021/07/18 17:43:59;;;;;;;13.37;8.20;;;;;;;25.21;100.00;93800.69;10580057;27;20035;-77
2021/07/18 17:49:00;;;;;;;10.60;7.13;;;;;;;25.21;100.00;93773.19;10564520;27;20285;-77
2021/07/18 17:54:02;;;;;;;13.38;9.00;;;;;;;25.39;100.00;93765.78;10557221;28;20024;-77
2021/07/18 17:59:02;;;;;;;8.25;5.28;;;;;;;25.52;100.00;93798.41;10541227;27;20059;-77
2021/07/18 18:04:04;;;;;;;11.67;5.10;;;;;;;25.55;100.00;93803.94;10574253;27;20098;-77
2021/07/18 18:09:04;;;;;;;7.13;5.35;;;;;;;25.47;100.00;93813.34;10567756;28;20039;-77
2021/07/18 18:14:10;;;;;;;8.13;5.60;;;;;;;25.52;100.00;93847.94;10550016;27;20020;-77
2021/07/18 18:19:10;;;;;;;11.10;5.47;;;;;;;25.75;100.00;93847.56;10535869;28;20028;-77
2021/07/18 18:24:13;;;;;;;13.15;7.20;;;;;;;25.75;100.00;93859.34;10577455;27;20126;-77
2021/07/18 18:29:13;;;;;;;11.25;7.35;;;;;;;25.40;100.00;93874.63;10610878;27;20019;-77
2021/07/18 18:34:16;;;;;;;11.00;6.68;;;;;;;24.94;100.00;93888.22;10609156;28;20019;-76
2021/07/18 18:39:16;;;;;;;8.23;6.47;;;;;;;24.71;100.00;93908.50;10573263;28;20023;-77
2021/07/18 18:44:17;;;;;;;8.40;6.38;;;;;;;24.77;100.00;93925.41;10565354;28;20027;-77
2021/07/18 18:49:18;;;;;;;9.55;6.28;;;;;;;24.70;100.00;93901.44;10545601;28;20073;-78
2021/07/18 18:54:18;;;;;;;9.17;6.10;;;;;;;24.51;100.00;93891.47;10588027;28;20061;-77
2021/07/18 18:59:18;;;;;;;8.23;6.03;;;;;;;24.40;100.00;93889.44;10593812;27;20027;-77
2021/07/18 19:04:19;;;;;;;9.93;5.40;;;;;;;24.17;100.00;93902.66;10609185;28;20108;-77
2021/07/18 19:09:19;;;;;;;13.07;6.27;;;;;;;23.92;100.00;93892.25;10609175;28;20514;-77
2021/07/18 19:14:19;;;;;;;8.93;5.57;;;;;;;23.77;100.00;93896.78;10608252;28;20053;-77
2021/07/18 19:19:20;;;;;;;11.07;7.07;;;;;;;23.67;100.00;93898.25;10609233;28;20023;-77
2021/07/18 19:24:20;;;;;;;14.63;6.90;;;;;;;23.43;100.00;93907.03;10608143;27;20809;-77
2021/07/18 19:29:21;;;;;;;12.70;7.23;;;;;;;23.33;100.00;93908.47;10609225;27;20038;-77
2021/07/18 19:34:21;;;;;;;15.52;6.97;;;;;;;23.28;100.00;93914.31;10616224;27;20035;-77
2021/07/18 19:39:21;;;;;;;10.30;6.60;;;;;;;23.25;100.00;93931.50;10598708;27;20023;-77
2021/07/18 19:44:22;;;;;;;12.67;6.97;;;;;;;23.23;100.00;93951.06;10572918;28;20304;-77
2021/07/18 19:49:22;;;;;;;12.17;6.77;;;;;;;23.18;100.00;93952.19;10573558;28;20160;-77
2021/07/18 19:54:23;;;;;;;9.33;5.30;;;;;;;23.00;100.00;93957.41;10571902;28;20358;-77
2021/07/18 19:59:24;;;;;;;7.23;5.33;;;;;;;22.97;100.00;93949.94;10567734;28;20034;-77
2021/07/18 20:04:24;;;;;;;12.90;5.43;;;;;;;22.96;100.00;93944.84;10530582;28;20013;-77
2021/07/18 20:09:24;;;;;;;11.47;6.30;;;;;;;22.77;100.00;93943.00;10530071;28;20028;-77
2021/07/18 20:14:25;;;;;;;9.43;5.97;;;;;;;22.78;100.00;93928.94;10529398;28;20024;-77
2021/07/18 20:19:25;;;;;;;22.07;10.43;;;;;;;22.95;100.00;93938.53;10529835;28;20274;-77
2021/07/18 20:24:26;;;;;;;10.38;6.60;;;;;;;22.84;100.00;93954.06;10529046;28;20050;-77
2021/07/18 20:29:26;;;;;;;9.70;6.53;;;;;;;22.86;100.00;93957.22;10529733;28;20028;-77
2021/07/18 20:34:28;;;;;;;7.15;5.97;;;;;;;23.01;100.00;93967.22;10529082;28;20522;-77
2021/07/18 20:39:29;;;;;;;11.70;6.13;;;;;;;22.98;100.00;93970.72;10547212;28;20038;-77
2021/07/18 20:44:29;;;;;;;11.18;5.95;;;;;;;22.89;100.00;93963.94;10571364;28;20192;-76
2021/07/18 20:49:30;;;;;;;8.20;5.77;;;;;;;23.08;100.00;93974.75;10570917;28;20080;-77
2021/07/18 20:54:30;;;;;;;9.70;5.53;;;;;;;23.07;100.00;93962.19;10555407;28;20027;-77
2021/07/18 20:59:31;;;;;;;8.50;5.60;;;;;;;23.00;100.00;93962.91;10574120;27;20027;-77
2021/07/18 21:04:31;;;;;;;9.73;6.18;;;;;;;23.07;100.00;93966.91;10582609;27;20035;-76
2021/07/18 21:09:31;;;;;;;10.30;5.23;;;;;;;23.00;100.00;93970.34;10573467;28;20035;-77
2021/07/18 21:14:32;;;;;;;6.80;4.87;;;;;;;22.82;100.00;93959.13;10555035;28;20126;-77
2021/07/18 21:19:33;;;;;;;7.95;5.60;;;;;;;22.73;100.00;93975.03;10584508;27;20020;-77
2021/07/18 21:24:33;;;;;;;8.65;5.15;;;;;;;22.75;100.00;93968.03;10578518;27;20777;-78
2021/07/18 21:29:33;;;;;;;8.93;5.47;;;;;;;22.72;100.00;93982.47;10612564;27;20556;-78
2021/07/18 21:34:34;;;;;;;11.80;5.57;;;;;;;22.78;100.00;93980.22;10605895;27;20055;-77
2021/07/18 21:39:34;;;;;;;9.23;5.10;;;;;;;22.76;100.00;93979.78;10571916;28;20031;-77
2021/07/18 21:44:34;;;;;;;9.60;5.20;;;;;;;22.69;100.00;93975.78;10571394;28;20020;-77
2021/07/18 21:49:35;;;;;;;16.43;7.27;;;;;;;22.71;100.00;93969.94;10573212;27;20035;-76
2021/07/18 21:54:35;;;;;;;11.27;6.33;;;;;;;22.74;100.00;93966.44;10590486;27;20847;-77
2021/07/18 21:59:35;;;;;;;7.07;4.93;;;;;;;22.70;100.00;93960.94;10567399;28;20038;-77
2021/07/18 22:04:36;;;;;;;12.17;6.27;;;;;;;22.75;100.00;93975.47;10572646;27;20062;-77
2021/07/18 22:09:37;;;;;;;10.00;6.03;;;;;;;22.69;100.00;93975.00;10584724;27;20023;-77
2021/07/18 22:14:37;;;;;;;13.90;6.20;;;;;;;22.62;100.00;93986.63;10564333;27;20511;-76
2021/07/18 22:19:38;;;;;;;13.17;6.37;;;;;;;22.48;100.00;93992.69;10565725;28;20072;-77
2021/07/18 22:24:38;;;;;;;14.50;7.25;;;;;;;22.57;100.00;93988.91;10548205;28;20064;-77
2021/07/18 22:29:39;;;;;;;11.60;6.57;;;;;;;22.47;100.00;93995.78;10523733;28;20024;-77
2021/07/18 22:34:39;;;;;;;11.47;6.70;;;;;;;22.34;100.00;93995.19;10524363;28;20081;-77
2021/07/18 22:39:41;;;;;;;12.80;7.82;;;;;;;22.11;100.00;93992.44;10524362;28;20134;-77
2021/07/18 22:44:41;;;;;;;9.63;7.45;;;;;;;21.97;100.00;93982.81;10522541;28;20111;-77
2021/07/18 22:49:41;;;;;;;17.30;8.80;;;;;;;21.65;100.00;93985.75;10523670;28;20032;-77
2021/07/18 22:54:42;;;;;;;13.37;8.50;;;;;;;21.57;100.00;93969.59;10524822;28;20559;-77
2021/07/18 22:59:42;;;;;;;13.67;8.43;;;;;;;21.67;100.00;93963.53;10524103;28;20274;-77
2021/07/18 23:04:43;;;;;;;20.00;9.43;;;;;;;21.56;100.00;93965.28;10510493;28;20024;-77
2021/07/18 23:09:43;;;;;;;15.68;8.20;;;;;;;21.47;100.00;93962.75;10532992;28;20020;-77